Map

Track Data

SID SEASON NUMBER BASIN SUBBASIN NAME ISO_TIME NATURE LAT LON WMO_WIND WMO_PRES WMO_AGENCY TRACK_TYPE DIST2LAND LANDFALL IFLAG USA_AGENCY USA_ATCF_ID USA_LAT USA_LON USA_RECORD USA_STATUS USA_WIND USA_PRES USA_SSHS USA_R34_NE USA_R34_SE USA_R34_SW USA_R34_NW USA_R50_NE USA_R50_SE USA_R50_SW USA_R50_NW USA_R64_NE USA_R64_SE USA_R64_SW USA_R64_NW USA_POCI USA_ROCI USA_RMW USA_EYE TOKYO_LAT TOKYO_LON TOKYO_GRADE TOKYO_WIND TOKYO_PRES TOKYO_R50_DIR TOKYO_R50_LONG TOKYO_R50_SHORT TOKYO_R30_DIR TOKYO_R30_LONG TOKYO_R30_SHORT TOKYO_LAND CMA_LAT CMA_LON CMA_CAT CMA_WIND CMA_PRES HKO_LAT HKO_LON HKO_CAT HKO_WIND HKO_PRES NEWDELHI_LAT NEWDELHI_LON NEWDELHI_GRADE NEWDELHI_WIND NEWDELHI_PRES NEWDELHI_CI NEWDELHI_DP NEWDELHI_POCI REUNION_LAT REUNION_LON REUNION_TYPE REUNION_WIND REUNION_PRES REUNION_TNUM REUNION_CI REUNION_RMW REUNION_R34_NE REUNION_R34_SE REUNION_R34_SW REUNION_R34_NW REUNION_R50_NE REUNION_R50_SE REUNION_R50_SW REUNION_R50_NW REUNION_R64_NE REUNION_R64_SE REUNION_R64_SW REUNION_R64_NW BOM_LAT BOM_LON BOM_TYPE BOM_WIND BOM_PRES BOM_TNUM BOM_CI BOM_RMW BOM_R34_NE BOM_R34_SE BOM_R34_SW BOM_R34_NW BOM_R50_NE BOM_R50_SE BOM_R50_SW BOM_R50_NW BOM_R64_NE BOM_R64_SE BOM_R64_SW BOM_R64_NW BOM_ROCI BOM_POCI BOM_EYE BOM_POS_METHOD BOM_PRES_METHOD NADI_LAT NADI_LON NADI_CAT NADI_WIND NADI_PRES WELLINGTON_LAT WELLINGTON_LON WELLINGTON_WIND WELLINGTON_PRES DS824_LAT DS824_LON DS824_STAGE DS824_WIND DS824_PRES TD9636_LAT TD9636_LON TD9636_STAGE TD9636_WIND TD9636_PRES TD9635_LAT TD9635_LON TD9635_WIND TD9635_PRES TD9635_ROCI NEUMANN_LAT NEUMANN_LON NEUMANN_CLASS NEUMANN_WIND NEUMANN_PRES MLC_LAT MLC_LON MLC_CLASS MLC_WIND MLC_PRES USA_GUST BOM_GUST BOM_GUST_PER REUNION_GUST REUNION_GUST_PER USA_SEAHGT USA_SEARAD_NE USA_SEARAD_SE USA_SEARAD_SW USA_SEARAD_NW STORM_SPEED STORM_DIR
2019288N13341 2019 80 NA NA NOT_NAMED 2019-10-14 12:00:00 TS 12.6000 -19.3000 30 1006 hurdat_atl main 271 271 O_____________ hurdat_atl AL152019 12.6000 -19.3000 TD 30 1006 -1 1011 150 50 40 10 311
2019288N13341 2019 80 NA NA NOT_NAMED 2019-10-14 15:00:00 TS 12.9277 -19.6847 main 311 304 P_____________ AL152019 12.9277 -19.6847 TD 30 1006 -1 1011 150 50 10 316
2019288N13341 2019 80 NA NA NOT_NAMED 2019-10-14 18:00:00 TS 13.3000 -20.0000 30 1006 hurdat_atl main 312 306 O_____________ hurdat_atl AL152019 13.3000 -20.0000 TD 30 1006 -1 1011 150 50 40 10 328
2019288N13341 2019 80 NA NA NOT_NAMED 2019-10-14 21:00:00 TS 13.7424 -20.2077 main 311 308 P_____________ AL152019 13.7424 -20.2077 TD 30 1006 -1 1011 175 50 10 337
2019288N13341 2019 80 NA NA NOT_NAMED 2019-10-15 00:00:00 TS 14.2000 -20.4000 30 1006 hurdat_atl main 317 315 O_____________ hurdat_atl AL152019 14.2000 -20.4000 TD 30 1006 -1 1012 200 50 40 10 332
2019288N13341 2019 80 NA NA NOT_NAMED 2019-10-15 03:00:00 TS 14.6150 -20.6776 main 344 344 P_____________ AL152019 14.6150 -20.6776 TD 30 1006 -1 1012 200 50 10 324
2019288N13341 2019 80 NA NA NOT_NAMED 2019-10-15 06:00:00 TS 15.0000 -21.0000 30 1006 hurdat_atl main 377 377 O_____________ hurdat_atl AL152019 15.0000 -21.0000 TD 30 1006 -1 1012 200 50 40 10 320
2019288N13341 2019 80 NA NA NOT_NAMED 2019-10-15 09:00:00 TS 15.3649 -21.3276 main 415 415 P_____________ AL152019 15.3649 -21.3276 TD 30 1006 -1 1012 225 55 10 316
2019288N13341 2019 80 NA NA NOT_NAMED 2019-10-15 12:00:00 TS 15.7000 -21.7000 30 1006 hurdat_atl main 464 464 O_____________ hurdat_atl AL152019 15.7000 -21.7000 TD 30 1006 -1 1012 250 60 40 10 309
2019288N13341 2019 80 NA NA NOT_NAMED 2019-10-15 15:00:00 TS 16.0000 -22.1426 main 514 514 P_____________ AL152019 16.0000 -22.1426 TD 30 1006 -1 1012 250 65 11 305
2019288N13341 2019 80 NA NA NOT_NAMED 2019-10-15 18:00:00 TS 16.3000 -22.6000 30 1007 hurdat_atl main 575 575 O_____________ hurdat_atl AL152019 16.3000 -22.6000 TD 30 1007 -1 1012 250 70 10 309
2019288N13341 2019 80 NA NA NOT_NAMED 2019-10-15 21:00:00 TS 16.6498 -22.9927 main 626 626 P_____________ AL152019 16.6498 -22.9927 TD 30 1008 -1 1012 225 70 10 312
2019288N13341 2019 80 NA NA NOT_NAMED 2019-10-16 00:00:00 TS 17.0000 -23.4000 30 1009 hurdat_atl main 681 681 O_____________ hurdat_atl AL152019 17.0000 -23.4000 TD 30 1009 -1 1012 200 70 40 11 308
2019288N13341 2019 80 NA NA NOT_NAMED 2019-10-16 03:00:00 TS 17.3075 -23.8851 main 743 743 P_____________ AL152019 17.3075 -23.8851 TD 27 1009 -1 1012 200 70 11 302
2019288N13341 2019 80 NA NA NOT_NAMED 2019-10-16 06:00:00 DS 17.6000 -24.4000 25 1009 hurdat_atl main 805 805 O_____________ hurdat_atl AL152019 17.6000 -24.4000 LO 25 1009 -3 1012 200 70 35 11 303
2019288N13341 2019 80 NA NA NOT_NAMED 2019-10-16 09:00:00 DS 17.9071 -24.8703 main 867 867 P_____________ AL152019 17.9071 -24.8703 LO 25 1009 -3 1012 200 70 11 302
2019288N13341 2019 80 NA NA NOT_NAMED 2019-10-16 12:00:00 DS 18.2000 -25.4000 25 1009 hurdat_atl main 917 917 O_____________ hurdat_atl AL152019 18.2000 -25.4000 LO 25 1009 -3 1012 200 70 13 296
2019288N13341 2019 80 NA NA NOT_NAMED 2019-10-16 15:00:00 DS 18.4575 -26.0627 main 976 976 P_____________ AL152019 18.4575 -26.0627 LO 25 1009 -3 1012 200 70 14 291
2019288N13341 2019 80 NA NA NOT_NAMED 2019-10-16 18:00:00 DS 18.7000 -26.8000 25 1009 hurdat_atl main 1041 1041 O_____________ hurdat_atl AL152019 18.7000 -26.8000 LO 25 1009 -3 1012 200 70 15 290
2019288N13341 2019 80 NA NA NOT_NAMED 2019-10-16 21:00:00 DS 18.9648 -27.5425 main 1105 1105 P_____________ AL152019 18.9648 -27.5425 LO 25 1009 -3 1012 200 70 15 289
2019288N13341 2019 80 NA NA NOT_NAMED 2019-10-17 00:00:00 DS 19.2000 -28.3000 25 1009 hurdat_atl main 1183 1183 O_____________ hurdat_atl AL152019 19.2000 -28.3000 LO 25 1009 -3 1012 200 70 15 287
2019288N13341 2019 80 NA NA NOT_NAMED 2019-10-17 03:00:00 DS 19.4024 -29.0723 main 1262 1262 P_____________ AL152019 19.4024 -29.0723 LO 25 1009 -3 1012 200 70 14 282
2019288N13341 2019 80 NA NA NOT_NAMED 2019-10-17 06:00:00 DS 19.5000 -29.8000 25 1009 hurdat_atl main 1333 1333 O_____________ hurdat_atl AL152019 19.5000 -29.8000 LO 25 1009 -3 1012 200 70 13 272
2019288N13341 2019 80 NA NA NOT_NAMED 2019-10-17 09:00:00 DS 19.4452 -30.4304 main 1397 1397 P_____________ AL152019 19.4452 -30.4304 LO 25 1009 -3 1012 200 70 12 260
2019288N13341 2019 80 NA NA NOT_NAMED 2019-10-17 12:00:00 DS 19.3000 -31.0000 25 1009 hurdat_atl main 1461 O_____________ hurdat_atl AL152019 19.3000 -31.0000 LO 25 1009 -3 1012 200 70 11 255

About IBTrACS Database

This database is a web-friendly format of International Best Track Archive for Climate Stewardship (IBTrACS), a global best track data archive curated by NOAA dating back to 1842.

Updated: 2021-10-08